• Join FlightAware (Why Join?)
  • Login
  • US Flag 
11:01PM EDT


 

Airport Tracker/Info


-or-


 

Live Flight TrackerFlight Track Log ✈ AAY816 ✈ 02-May-2012 ✈ KPIE - KHTS

Flight Track Log - Related Links

Times and Time Zones

All times are in EDT time to prevent confusion due to time zone crossing. See the AAY816 flight status page for this flight to view local times or setup timezone preferences in your user account.

Time Position Orientation Groundspeed Altitude Reporting Facility
EDT Latitude Longitude Course Direction KTS MPH feet Rate Location/Type
07:10AM 27.9000 -82.6833 180° South 160 184 800  Level Tampa TRACON
07:10AM 27.8667 -82.6833 233° Southwest 186 214 1,700 1,980 Climbing Tampa TRACON
07:11AM 27.8333 -82.7333 358° North 222 255 4,200 2,160 Climbing Tampa TRACON
07:15AM 28.1144 -82.7419 North 310 357 11,900 2,040 Climbing Jacksonville Center
07:16AM 28.2375 -82.7300 North 359 413 13,900 2,160 Climbing Jacksonville Center
07:17AM 28.3417 -82.7228 North 403 464 16,300 2,220 Climbing Jacksonville Center
07:18AM 28.4567 -82.7131 North 410 472 18,400 1,980 Climbing Jacksonville Center
07:19AM 28.5797 -82.7033 North 421 484 20,300 1,800 Climbing Jacksonville Center
07:20AM 28.7111 -82.6889 North 426 490 22,100 1,680 Climbing Jacksonville Center
07:21AM 28.8342 -82.6864 360° North 431 496 23,700 1,680 Climbing Jacksonville Center
07:22AM 28.9636 -82.6861 357° North 443 510 25,500 1,800 Climbing Jacksonville Center
07:23AM 29.0889 -82.6931 North 448 516 27,400 1,680 Climbing Jacksonville Center
07:24AM 29.2142 -82.6903 North 448 516 28,900 1,620 Climbing Jacksonville Center
07:25AM 29.3414 -82.6853 North 448 516 30,700 1,560 Climbing Jacksonville Center
07:26AM 29.4625 -82.6828 North 441 507 32,100 1,080 Climbing Jacksonville Center
07:27AM 29.5711 -82.6800 North 436 502 32,900 360 Climbing Jacksonville Center
07:28AM 29.6942 -82.6725 North 436 502 32,900  Level Jacksonville Center
07:29AM 29.8133 -82.6581 North 436 502 32,900  Level Jacksonville Center
07:30AM 29.9364 -82.6506 North 441 507 32,900  Level Jacksonville Center
07:31AM 30.0553 -82.6381 North 441 507 32,900  Level Jacksonville Center
07:32AM 30.1764 -82.6283 North 441 507 32,900  Level Jacksonville Center
07:33AM 30.2997 -82.6158 North 436 502 32,900  Level Jacksonville Center
07:34AM 30.4206 -82.6011 North 441 507 32,900  Level Jacksonville Center
07:35AM 30.5439 -82.5936 North 441 507 32,900  Level Jacksonville Center
07:36AM 30.6669 -82.5833 North 441 507 32,900  Level Jacksonville Center
07:37AM 30.7903 -82.5733 North 441 507 32,900  Level Jacksonville Center
07:38AM 30.9133 -82.5608 North 441 507 32,900  Level Jacksonville Center
07:39AM 31.0364 -82.5508 North 441 507 32,900  Level Jacksonville Center
07:40AM 31.1575 -82.5431 North 441 507 32,900  Level Jacksonville Center
07:41AM 31.2828 -82.5303 North 441 507 32,900  Level Jacksonville Center
07:42AM 31.4144 -82.5153 North 441 507 33,000  Climbing Jacksonville Center
07:43AM 31.5353 -82.5050 North 436 502 33,000  Level Jacksonville Center
07:44AM 31.6367 -82.4925 North 448 516 33,000  Level Atlanta Center
07:45AM 31.7556 -82.4733 North 448 516 33,000  Level Atlanta Center
07:46AM 31.8783 -82.4542 North 442 509 33,000  Level Atlanta Center
07:47AM 31.9969 -82.4347 North 436 502 33,000  Level Atlanta Center
07:48AM 32.1178 -82.4156 North 436 502 33,000  Level Atlanta Center
07:49AM 32.2386 -82.3961 North 441 507 33,000  Level Atlanta Center
07:50AM 32.3575 -82.3792 North 436 502 33,000  Level Atlanta Center
07:51AM 32.4781 -82.3572 North 436 502 33,000  Level Atlanta Center
07:52AM 32.5947 -82.3400 North 436 502 33,000  Level Atlanta Center
07:53AM 32.7178 -82.3231 North 436 502 33,000  Level Atlanta Center
07:54AM 32.8364 -82.3033 North 431 496 33,000  Level Atlanta Center
07:55AM 32.9531 -82.2836 North 425 489 33,000  Level Atlanta Center
07:56AM 33.0758 -82.2639 North 425 489 33,000  Level Atlanta Center
07:57AM 33.1947 -82.2442 North 430 495 33,000  Level Atlanta Center
07:58AM 33.3133 -82.2242 North 430 495 33,000  Level Atlanta Center
07:59AM 33.4300 -82.2044 North 425 489 33,000  Level Atlanta Center
08:00AM 33.5506 -82.1842 North 425 489 33,000  Level Atlanta Center
08:01AM 33.6839 -82.1639 North 431 496 33,000  Level Atlanta Center
08:02AM 33.8047 -82.1414 North 431 496 33,000  Level Atlanta Center
08:03AM 33.9275 -82.1211 North 436 502 33,000  Level Atlanta Center
08:04AM 34.0461 -82.1008 North 436 502 33,000  Level Atlanta Center
08:05AM 34.1647 -82.0781 North 436 502 33,000  Level Atlanta Center
08:06AM 34.2833 -82.0603 North 436 502 33,000 -420 Level Atlanta Center
08:07AM 34.4019 -82.0372 North 431 496 32,200 -900 Descending Atlanta Center
08:08AM 34.5228 -82.0167 North 431 496 31,200 -600 Descending Atlanta Center
08:09AM 34.6433 -81.9961 North 431 496 31,000 -120 Descending Atlanta Center
08:10AM 34.7578 -81.9758 North 437 503 31,000  Level Atlanta Center
08:11AM 34.8783 -81.9525 North 437 503 31,000  Level Atlanta Center
08:12AM 34.9992 -81.9367 North 444 511 31,000  Level Atlanta Center
08:13AM 35.1222 -81.9261 North 439 505 31,000  Level Atlanta Center
08:14AM 35.2431 -81.9206 North 439 505 31,000  Level Atlanta Center
08:15AM 35.3786 -81.9144 North 439 505 31,000  Level Atlanta Center
08:16AM 35.4994 -81.9086 North 439 505 31,000 -420 Level Atlanta Center
08:17AM 35.6225 -81.9031 North 439 505 30,200 -720 Descending Atlanta Center
08:18AM 35.7475 -81.8972 North 439 505 29,600 -840 Descending Atlanta Center
08:19AM 35.8725 -81.8911 North 439 505 28,600 -1,020 Descending Atlanta Center
08:20AM 35.9978 -81.8853 North 446 513 27,600 -840 Descending Atlanta Center
08:21AM 36.1061 -81.8800 North 441 507 27,000 -300 Descending Atlanta Center
08:22AM 36.2269 -81.8717 North 436 502 27,000 -180 Level Atlanta Center
08:23AM 36.3519 -81.8656 North 442 509 26,700 -780 Descending Atlanta Center
08:25AM 36.5558 -81.8558 North 434 499 25,000 -1,020 Descending Indianapolis Center
08:26AM 36.6725 -81.8508 North 428 493 24,000 -540 Descending Indianapolis Center
08:27AM 36.7914 -81.8453 North 422 486 24,000  Level Indianapolis Center
08:28AM 36.9103 -81.8375 North 422 486 24,000  Level Indianapolis Center
08:29AM 37.0269 -81.8322 North 422 486 24,000 -120 Level Indianapolis Center
08:30AM 37.1458 -81.8269 North 422 486 23,800 -600 Descending Indianapolis Center
08:31AM 37.2603 -81.8217 343° North 422 486 22,800 -1,020 Descending Indianapolis Center
08:32AM 37.3631 -81.8611 331° Northwest 403 464 21,800 -1,020 Descending Indianapolis Center
08:33AM 37.4558 -81.9269 332° Northwest 381 438 20,800 -1,680 Descending Indianapolis Center
08:34AM 37.5506 -81.9906 332° Northwest 381 438 18,500 -2,340 Descending Indianapolis Center
08:35AM 37.6433 -82.0542 331° Northwest 381 438 16,200 -2,400 Descending Indianapolis Center
08:36AM 37.7317 -82.1153 331° Northwest 376 433 13,700 -2,400 Descending Indianapolis Center
08:37AM 37.8200 -82.1767 331° Northwest 371 427 11,500 -1,680 Descending Indianapolis Center
08:38AM 37.8956 -82.2306 332° Northwest 339 390 10,400 -1,080 Descending Indianapolis Center
08:39AM 37.9650 -82.2767 341° North 298 343 9,400 -1,380 Descending Indianapolis Center
08:40AM 38.0342 -82.3072 342° North 273 314 7,700 -1,680 Descending Indianapolis Center
08:41AM 38.1075 -82.3375 324° Northwest 268 308 6,100 -1,500 Descending Indianapolis Center
08:42AM 38.1644 -82.3894 322° Northwest 262 302 4,700 -1,380 Descending Indianapolis Center
08:43AM 38.2169 -82.4417 317° Northwest 249 287 3,400 -1,080 Descending Indianapolis Center
08:44AM 38.2592 -82.4911 293° West 229 264 2,600 -420 Descending Indianapolis Center
08:45AM 38.2783 -82.5492 290° West 189 217 2,600  Level Indianapolis Center
08:46AM 38.2956 -82.6097 290° West 177 204 2,600  Level Indianapolis Center